»·PEaware :: SWA1515 KSAN-KPHX

SWA1515 :: KSAN-KPHX

FLIGHT INFORMATION

Flight Status: Arrived
Operator:
Southwest Airlines
More flights by this operator :: More flights under this callsign
Pilot: Rohan O. (9904)
Aircraft: BOEING 737-300
(B733)
More flights by this aircraft type
Origin: KSAN San Diego Intl-Lindbergh
United States
Destination: KPHX Phoenix Sky Harbor Intl
United States
More flights between these airports :: More routes between these airports
Route: +ZZOOO2 IPL J18 BZA HOGGZ HYDRR1
File this flight plan on PilotEdge
Remarks: RMK / SIMBRIEF
Altitude:
(Current/Filed)
27,000ft
Speed:
(Current/Filed)
421kts
Departed: 29-Jul-20 01:05 PM
Arrived: 29-Jul-20 02:01 PM
Distance/Time
Traveled:
264nm/0:55
Distance/Time
To Go:
Arrived

Flight Plot

Page will automatically refresh every two minutes.


Map Options




Map Legend


Flown Route
Filed Route
Departure Airport
Arrival Airport
Navaid (VOR, NDB)
Fix

Horizontal Profiles

Position Reports

Time Latitude Longitude Heading Altitude Ground
Speed
29-Jul-20 12:14 32.733198 -117.196862 134 17ft 0kts
29-Jul-20 12:15 32.733198 -117.196862 134 17ft 0kts
29-Jul-20 12:16 32.733198 -117.196862 134 17ft 0kts
29-Jul-20 12:17 32.733198 -117.196862 134 17ft 0kts
29-Jul-20 12:18 32.733198 -117.196862 134 17ft 0kts
29-Jul-20 12:19 32.733198 -117.196862 134 17ft 0kts
29-Jul-20 12:20 32.733198 -117.196862 134 17ft 0kts
29-Jul-20 12:21 32.733198 -117.196862 134 17ft 0kts
29-Jul-20 12:22 32.733198 -117.196862 134 17ft 0kts
29-Jul-20 12:23 32.733198 -117.196862 134 17ft 0kts
29-Jul-20 12:24 32.733198 -117.196862 134 17ft 0kts
29-Jul-20 12:25 32.733198 -117.196862 134 17ft 0kts
29-Jul-20 12:26 32.733198 -117.196862 134 17ft 0kts
29-Jul-20 12:27 32.733198 -117.196862 134 17ft 0kts
29-Jul-20 12:28 32.733198 -117.196862 134 17ft 0kts
29-Jul-20 12:29 32.733198 -117.196862 134 17ft 0kts
29-Jul-20 12:30 32.733198 -117.196862 134 17ft 0kts
29-Jul-20 12:31 32.733198 -117.196862 134 17ft 0kts
29-Jul-20 12:32 32.733198 -117.196862 134 17ft 0kts
29-Jul-20 12:33 32.733198 -117.196862 134 17ft 0kts
29-Jul-20 12:34 32.733198 -117.196862 134 17ft 0kts
29-Jul-20 12:35 32.733198 -117.196862 134 17ft 0kts
29-Jul-20 12:36 32.733198 -117.196862 134 17ft 0kts
29-Jul-20 12:37 32.733198 -117.196862 134 17ft 0kts
29-Jul-20 12:38 32.733198 -117.196862 134 17ft 0kts
29-Jul-20 12:39 32.733198 -117.196862 134 17ft 0kts
29-Jul-20 12:40 32.733198 -117.196862 134 17ft 0kts
29-Jul-20 12:41 32.733198 -117.196862 134 17ft 0kts
29-Jul-20 12:42 32.733198 -117.196862 134 17ft 0kts
29-Jul-20 12:43 32.733198 -117.196862 134 17ft 0kts
29-Jul-20 12:44 32.733198 -117.196862 134 17ft 0kts
29-Jul-20 12:45 32.733198 -117.196862 134 17ft 0kts
29-Jul-20 12:46 32.733198 -117.196862 134 17ft 0kts
29-Jul-20 12:47 32.733198 -117.196862 134 17ft 0kts
29-Jul-20 12:48 32.733198 -117.196862 134 17ft 0kts
29-Jul-20 12:49 32.733198 -117.196862 134 17ft 0kts
29-Jul-20 12:50 32.733198 -117.196862 134 17ft 0kts
29-Jul-20 12:51 32.733331 -117.197044 98 17ft 2kts
29-Jul-20 12:52 32.733171 -117.197262 17 17ft 0kts
29-Jul-20 12:53 32.733172 -117.197262 17 17ft 0kts
29-Jul-20 12:54 32.733172 -117.197262 17 17ft 0kts
29-Jul-20 12:55 32.733172 -117.197262 17 17ft 0kts
29-Jul-20 12:56 32.733172 -117.197262 17 17ft 0kts
29-Jul-20 12:57 32.733172 -117.197262 17 17ft 0kts
29-Jul-20 12:58 32.733172 -117.197262 17 17ft 0kts
29-Jul-20 12:59 32.734153 -117.196361 103 17ft 10kts
29-Jul-20 13:00 32.732922 -117.191325 106 19ft 21kts
29-Jul-20 13:01 32.731039 -117.183564 106 17ft 26kts
29-Jul-20 13:02 32.729491 -117.177192 106 21ft 2kts
29-Jul-20 13:03 32.730128 -117.175966 324 23ft 8kts
29-Jul-20 13:04 32.734437 -117.193345 286 22ft 153kts
29-Jul-20 13:05 32.749022 -117.248781 285 2328ft 180kts
29-Jul-20 13:06 32.751679 -117.307254 230 4985ft 193kts
29-Jul-20 13:07 32.696636 -117.307549 146 7396ft 243kts
29-Jul-20 13:09 32.645551 -117.257290 145 10708ft 233kts
29-Jul-20 13:10 32.625603 -117.182809 100 12033ft 250kts
29-Jul-20 13:11 32.618045 -117.096609 99 12095ft 302kts
29-Jul-20 13:12 32.608495 -116.989105 98 14276ft 341kts
29-Jul-20 13:13 32.610036 -116.872974 77 16829ft 365kts
29-Jul-20 13:14 32.632518 -116.752989 84 19354ft 377kts
29-Jul-20 13:15 32.644429 -116.628646 84 21855ft 381kts
29-Jul-20 13:16 32.656975 -116.499864 84 23513ft 405kts
29-Jul-20 13:17 32.669636 -116.368888 83 25572ft 411kts
29-Jul-20 13:18 32.682611 -116.232804 84 26962ft 431kts
29-Jul-20 13:19 32.696623 -116.084311 84 26847ft 477kts
29-Jul-20 13:20 32.710563 -115.930630 84 26895ft 481kts
29-Jul-20 13:21 32.724609 -115.778339 83 26891ft 480kts
29-Jul-20 13:22 32.738707 -115.623694 83 26891ft 480kts
29-Jul-20 13:23 32.750412 -115.466020 89 26887ft 480kts
29-Jul-20 13:23 32.753076 -115.333998 89 26857ft 481kts
29-Jul-20 13:25 32.757291 -115.153509 89 26893ft 480kts
29-Jul-20 13:26 32.760636 -114.999014 86 26918ft 462kts
29-Jul-20 13:26 32.762893 -114.879830 86 26885ft 458kts
29-Jul-20 13:28 32.766377 -114.703422 86 26908ft 458kts
29-Jul-20 13:29 32.768840 -114.553693 86 26913ft 458kts
29-Jul-20 13:29 32.770584 -114.426500 86 26917ft 459kts
29-Jul-20 13:30 32.772488 -114.285075 87 26912ft 458kts
29-Jul-20 13:32 32.774668 -114.106813 87 26919ft 459kts
29-Jul-20 13:32 32.784352 -113.980801 80 25988ft 455kts
29-Jul-20 13:33 32.800785 -113.833417 80 24921ft 425kts
29-Jul-20 13:34 32.816754 -113.700562 70 24898ft 402kts
29-Jul-20 13:35 32.884103 -113.597104 47 23720ft 394kts
29-Jul-20 13:36 32.956173 -113.500514 47 21902ft 382kts
29-Jul-20 13:37 33.026368 -113.405795 49 20103ft 397kts
29-Jul-20 13:38 33.099303 -113.306897 49 18278ft 391kts
29-Jul-20 13:39 33.169789 -113.211765 49 16473ft 382kts
29-Jul-20 13:40 33.239014 -113.117922 49 15060ft 368kts
29-Jul-20 13:41 33.276520 -113.013437 91 14462ft 350kts
29-Jul-20 13:42 33.278776 -112.898694 89 12658ft 339kts
29-Jul-20 13:43 33.283502 -112.789314 83 11095ft 323kts
29-Jul-20 13:44 33.293426 -112.685456 83 11033ft 311kts
29-Jul-20 13:45 33.303294 -112.581828 83 11043ft 310kts
29-Jul-20 13:46 33.312800 -112.478699 83 11037ft 311kts
29-Jul-20 13:47 33.322345 -112.375194 83 11043ft 310kts
29-Jul-20 13:48 33.331363 -112.274023 84 10271ft 307kts
29-Jul-20 13:49 33.340527 -112.173027 84 9175ft 303kts
29-Jul-20 13:50 33.347756 -112.079774 91 9054ft 254kts
29-Jul-20 13:51 33.346497 -111.994001 91 8169ft 254kts
29-Jul-20 13:52 33.345594 -111.912288 90 7061ft 235kts
29-Jul-20 13:53 33.345181 -111.836894 90 5986ft 219kts
29-Jul-20 13:54 33.358286 -111.771190 26 4615ft 219kts
29-Jul-20 13:55 33.405279 -111.802953 305 3154ft 215kts
29-Jul-20 13:56 33.429656 -111.858963 272 3099ft 183kts
29-Jul-20 13:57 33.428979 -111.914652 273 2706ft 139kts
29-Jul-20 13:58 33.428829 -111.962193 269 1838ft 141kts
29-Jul-20 13:59 33.428881 -112.009372 264 1121ft 134kts
29-Jul-20 14:00 33.429927 -112.021095 83 1116ft 0kts
29-Jul-20 14:01 33.429941 -112.020955 83 1116ft 2kts
29-Jul-20 14:02 33.429950 -112.018013 90 1119ft 10kts
29-Jul-20 14:03 33.429952 -112.013502 90 1122ft 14kts
29-Jul-20 14:04 33.430336 -112.008974 13 1123ft 10kts
29-Jul-20 14:05 33.432845 -112.010036 352 1126ft 4kts
29-Jul-20 14:06 33.433546 -112.010832 277 1126ft 7kts
29-Jul-20 14:07 33.433959 -112.013299 286 1123ft 0kts
29-Jul-20 14:08 33.433959 -112.013300 286 1123ft 0kts

Navigation Log

Ident Type
Flight plan parsing failed, navigation log unavailable